Time;durP1;ratioP1;P1;durP2;ratioP2;P2;SDS_P1;SDS_P2;PMS_P1;PMS_P2;Temp;Humidity;BMP_temperature;BMP_pressure;BME280_temperature;BME280_humidity;BME280_pressure;Samples;Min_cycle;Max_cycle;Signal;HPM_P1;HPM_P2
2022/01/12 00:00:51;;;;;;;0.50;0.50;;;;;;;;;;5005065;28;20221;-60
2022/01/12 00:03:19;;;;;;;0.80;0.80;;;;;;;;;;4998660;28;20206;-60
2022/01/12 00:05:46;;;;;;;1.07;0.77;;;;;;;;;;4999872;28;20217;-59
2022/01/12 00:08:13;;;;;;;1.00;0.90;;;;;;;;;;4998377;28;20220;-60
2022/01/12 00:10:40;;;;;;;0.70;0.70;;;;;;;;;;4997574;28;20210;-60
2022/01/12 00:13:07;;;;;;;0.80;0.80;;;;;;;;;;5001177;28;20202;-60
2022/01/12 00:15:36;;;;;;;0.80;0.80;;;;;;;;;;4997968;28;20220;-60
2022/01/12 00:18:03;;;;;;;0.83;0.83;;;;;;;;;;5002193;28;20208;-60
2022/01/12 00:20:30;;;;;;;0.80;0.57;;;;;;;;;;4999955;28;20245;-60
2022/01/12 00:22:57;;;;;;;0.50;0.50;;;;;;;;;;4998164;28;20231;-60
2022/01/12 00:25:34;;;;;;;0.80;0.80;;;;;;;;;;5002335;28;20229;-60
2022/01/12 00:33:31;;;;;;;0.50;0.50;;;;;;;;;;4970569;28;20227;-60
2022/01/12 00:35:59;;;;;;;0.70;0.70;;;;;;;;;;4997415;28;20209;-60
2022/01/12 00:38:29;;;;;;;0.90;0.90;;;;;;;;;;5000703;28;20283;-59
2022/01/12 00:40:56;;;;;;;1.17;1.17;;;;;;;;;;4999231;28;20215;-60
2022/01/12 00:43:26;;;;;;;0.80;0.80;;;;;;;;;;5000325;28;20215;-59
2022/01/12 00:45:55;;;;;;;0.70;0.70;;;;;;;;;;5001955;28;20244;-60
2022/01/12 00:48:22;;;;;;;0.80;0.80;;;;;;;;;;4999159;28;20213;-60
2022/01/12 00:50:49;;;;;;;0.80;0.80;;;;;;;;;;4998203;28;20231;-61
2022/01/12 00:53:17;;;;;;;1.07;0.80;;;;;;;;;;4999480;28;20239;-61
2022/01/12 00:55:44;;;;;;;0.80;0.80;;;;;;;;;;5000562;28;20292;-61
2022/01/12 00:58:11;;;;;;;0.80;0.77;;;;;;;;;;4998135;28;20213;-60
2022/01/12 01:00:38;;;;;;;0.70;0.70;;;;;;;;;;4998320;28;20207;-60
2022/01/12 01:03:07;;;;;;;0.83;0.80;;;;;;;;;;5000136;28;20293;-60
2022/01/12 01:05:34;;;;;;;0.63;0.63;;;;;;;;;;5001747;28;20245;-60
2022/01/12 01:08:02;;;;;;;0.57;0.57;;;;;;;;;;5000101;28;20213;-60
2022/01/12 01:10:42;;;;;;;0.60;0.60;;;;;;;;;;4998617;28;20202;-60
2022/01/12 01:13:09;;;;;;;0.63;0.63;;;;;;;;;;4999870;28;20213;-60
2022/01/12 01:15:55;;;;;;;0.50;0.50;;;;;;;;;;4999286;28;20217;-60
2022/01/12 01:26:40;;;;;;;1.23;1.03;;;;;;;;;;5007024;28;20208;-59
2022/01/12 01:29:07;;;;;;;0.67;0.67;;;;;;;;;;5003214;28;20210;-60
2022/01/12 01:31:35;;;;;;;0.70;0.70;;;;;;;;;;5003578;28;20209;-60
2022/01/12 01:34:09;;;;;;;0.67;0.67;;;;;;;;;;5003338;28;20209;-60
2022/01/12 01:36:36;;;;;;;0.73;0.73;;;;;;;;;;5001572;28;20303;-60
2022/01/12 01:39:04;;;;;;;1.30;0.70;;;;;;;;;;5000788;28;20223;-60
2022/01/12 01:41:31;;;;;;;0.67;0.67;;;;;;;;;;5002196;28;20201;-59
2022/01/12 01:44:21;;;;;;;0.80;0.80;;;;;;;;;;5001403;28;20202;-60
2022/01/12 01:55:06;;;;;;;0.70;0.70;;;;;;;;;;5003019;28;20255;-60
2022/01/12 01:57:33;;;;;;;1.07;1.00;;;;;;;;;;5004394;28;20255;-59
2022/01/12 02:00:00;;;;;;;0.90;0.90;;;;;;;;;;5003761;28;20626;-59
2022/01/12 02:02:27;;;;;;;0.70;0.70;;;;;;;;;;5002164;28;20347;-59
2022/01/12 02:04:56;;;;;;;0.90;0.90;;;;;;;;;;5002256;28;20221;-59
2022/01/12 02:07:23;;;;;;;1.53;0.90;;;;;;;;;;5003171;28;20271;-60
2022/01/12 02:09:50;;;;;;;0.90;0.90;;;;;;;;;;5002665;28;20205;-60
2022/01/12 02:12:24;;;;;;;0.70;0.63;;;;;;;;;;5004485;28;20270;-60
2022/01/12 02:14:52;;;;;;;0.67;0.67;;;;;;;;;;5005173;28;20738;-60
2022/01/12 02:17:23;;;;;;;2.87;0.73;;;;;;;;;;5005195;28;20210;-60
2022/01/12 02:19:57;;;;;;;0.73;0.73;;;;;;;;;;4999021;28;20988;-59
2022/01/12 02:36:17;;;;;;;3.10;1.50;;;;;;;;;;5000584;28;20764;-59
2022/01/12 02:41:30;;;;;;;1.13;1.03;;;;;;;;;;5003005;28;20212;-59
2022/01/12 02:55:11;;;;;;;4.60;2.07;;;;;;;;;;5003407;28;20319;-60
2022/01/12 02:57:38;;;;;;;1.70;1.40;;;;;;;;;;5002219;28;20208;-60
2022/01/12 03:00:09;;;;;;;0.90;0.90;;;;;;;;;;5003691;28;20205;-60
2022/01/12 03:02:38;;;;;;;1.30;1.03;;;;;;;;;;5001872;28;20198;-59
2022/01/12 03:07:46;;;;;;;1.17;0.90;;;;;;;;;;4988838;28;20354;-60
2022/01/12 03:10:15;;;;;;;2.77;1.33;;;;;;;;;;5001988;28;20263;-60
2022/01/12 03:12:43;;;;;;;1.87;1.57;;;;;;;;;;5005347;28;20206;-59
2022/01/12 03:15:10;;;;;;;1.83;1.60;;;;;;;;;;5001060;28;20209;-60
2022/01/12 03:17:37;;;;;;;2.13;1.20;;;;;;;;;;5000328;28;20271;-60
2022/01/12 03:20:05;;;;;;;2.50;1.33;;;;;;;;;;5000265;28;20424;-60
2022/01/12 03:22:32;;;;;;;4.00;1.60;;;;;;;;;;5001361;28;20203;-60
2022/01/12 03:24:59;;;;;;;1.50;1.40;;;;;;;;;;4999506;28;20233;-60
2022/01/12 03:27:29;;;;;;;1.50;1.40;;;;;;;;;;5000526;28;20213;-60
2022/01/12 03:29:57;;;;;;;3.93;1.53;;;;;;;;;;4999077;28;20204;-60
2022/01/12 03:32:31;;;;;;;0.77;0.77;;;;;;;;;;5002009;28;20556;-60
2022/01/12 03:35:08;;;;;;;0.73;0.73;;;;;;;;;;5001635;28;20233;-60
2022/01/12 03:37:52;;;;;;;1.27;1.17;;;;;;;;;;5001018;28;20204;-60
2022/01/12 03:40:19;;;;;;;0.87;0.87;;;;;;;;;;4999819;28;20212;-59
2022/01/12 03:42:48;;;;;;;1.00;1.00;;;;;;;;;;4999734;28;20643;-60
2022/01/12 03:45:16;;;;;;;1.33;1.10;;;;;;;;;;5000630;28;20225;-60
2022/01/12 03:47:43;;;;;;;1.43;1.27;;;;;;;;;;5010556;28;20292;-59
2022/01/12 03:50:10;;;;;;;1.07;0.87;;;;;;;;;;5009712;28;20614;-59
2022/01/12 03:52:37;;;;;;;0.90;0.90;;;;;;;;;;5009786;28;20237;-60
2022/01/12 03:55:04;;;;;;;2.17;1.47;;;;;;;;;;5009043;28;20208;-60
2022/01/12 03:57:31;;;;;;;1.17;1.07;;;;;;;;;;5009818;28;20212;-60
2022/01/12 04:00:00;;;;;;;0.87;0.73;;;;;;;;;;5009831;28;20265;-60
2022/01/12 04:02:27;;;;;;;0.60;0.60;;;;;;;;;;5010236;28;20667;-60
2022/01/12 04:05:10;;;;;;;1.07;0.70;;;;;;;;;;5009939;28;20736;-60
2022/01/12 04:10:21;;;;;;;0.93;0.80;;;;;;;;;;4995352;28;20200;-60
2022/01/12 04:12:48;;;;;;;1.83;0.93;;;;;;;;;;5009738;28;20630;-60
2022/01/12 04:15:17;;;;;;;0.70;0.70;;;;;;;;;;5009731;28;20201;-60
2022/01/12 04:17:44;;;;;;;0.57;0.57;;;;;;;;;;5009747;28;20217;-60
2022/01/12 04:20:11;;;;;;;2.30;0.80;;;;;;;;;;5008355;28;20555;-60
2022/01/12 04:25:25;;;;;;;1.70;1.07;;;;;;;;;;4991381;28;20371;-59
2022/01/12 04:27:52;;;;;;;0.97;0.87;;;;;;;;;;5007312;28;20298;-60
2022/01/12 04:30:20;;;;;;;0.73;0.73;;;;;;;;;;5009403;28;20213;-60
2022/01/12 04:32:48;;;;;;;1.40;0.83;;;;;;;;;;5009752;28;20600;-60
2022/01/12 04:35:16;;;;;;;1.03;1.03;;;;;;;;;;5008589;28;20588;-60
2022/01/12 04:37:43;;;;;;;1.37;1.27;;;;;;;;;;5009568;28;20204;-60
2022/01/12 04:40:11;;;;;;;1.80;1.40;;;;;;;;;;5009158;28;20706;-60
2022/01/12 04:42:38;;;;;;;0.97;0.97;;;;;;;;;;5009573;28;20211;-60
2022/01/12 04:45:17;;;;;;;0.80;0.80;;;;;;;;;;5009520;28;20231;-60
2022/01/12 04:47:59;;;;;;;1.07;1.07;;;;;;;;;;5008768;28;20686;-60
2022/01/12 04:50:27;;;;;;;0.93;0.93;;;;;;;;;;5009243;28;20309;-60
2022/01/12 04:52:54;;;;;;;2.17;0.90;;;;;;;;;;5008378;28;20251;-60
2022/01/12 04:55:21;;;;;;;2.43;1.13;;;;;;;;;;5010297;28;20209;-60
2022/01/12 04:57:49;;;;;;;1.90;1.47;;;;;;;;;;5013163;28;20675;-60
2022/01/12 05:00:18;;;;;;;1.07;0.83;;;;;;;;;;5012239;28;20208;-60
2022/01/12 05:08:20;;;;;;;1.30;1.20;;;;;;;;;;5005459;28;20669;-60
2022/01/12 05:13:32;;;;;;;1.07;1.07;;;;;;;;;;5013078;28;20207;-60
2022/01/12 05:16:00;;;;;;;0.80;0.80;;;;;;;;;;5002154;28;20303;-60
2022/01/12 05:18:29;;;;;;;1.33;1.13;;;;;;;;;;5013011;28;20662;-59
2022/01/12 05:20:56;;;;;;;1.17;1.10;;;;;;;;;;5012780;28;20618;-60
2022/01/12 05:23:23;;;;;;;1.10;1.03;;;;;;;;;;5012651;28;20251;-60
2022/01/12 05:25:52;;;;;;;2.00;1.10;;;;;;;;;;5012712;28;20226;-60
2022/01/12 05:28:19;;;;;;;0.80;0.80;;;;;;;;;;4993410;28;20224;-60
2022/01/12 05:30:46;;;;;;;1.23;1.17;;;;;;;;;;5012559;28;20275;-60
2022/01/12 05:33:13;;;;;;;1.20;1.10;;;;;;;;;;5013072;28;20208;-60
2022/01/12 05:35:43;;;;;;;2.50;0.80;;;;;;;;;;5013219;28;20303;-60
2022/01/12 05:38:11;;;;;;;2.93;1.33;;;;;;;;;;5013213;28;20216;-60
2022/01/12 05:40:38;;;;;;;1.83;1.33;;;;;;;;;;5012997;28;20215;-60
2022/01/12 05:43:06;;;;;;;1.23;1.23;;;;;;;;;;5012637;28;20727;-60
2022/01/12 05:45:34;;;;;;;0.97;0.90;;;;;;;;;;5012677;28;20229;-60
2022/01/12 05:50:49;;;;;;;1.20;1.10;;;;;;;;;;5012546;28;20306;-60
2022/01/12 05:53:16;;;;;;;1.23;1.07;;;;;;;;;;5012481;28;20330;-60
2022/01/12 05:55:43;;;;;;;1.13;1.07;;;;;;;;;;5012576;28;20811;-60
2022/01/12 05:58:11;;;;;;;0.80;0.80;;;;;;;;;;5012582;28;20219;-60
2022/01/12 06:00:38;;;;;;;1.27;1.17;;;;;;;;;;5010880;28;20225;-60
2022/01/12 06:03:05;;;;;;;1.43;1.23;;;;;;;;;;5010508;28;20670;-60
2022/01/12 06:05:32;;;;;;;1.27;1.17;;;;;;;;;;5008078;28;20289;-60
2022/01/12 06:08:00;;;;;;;1.97;1.40;;;;;;;;;;5011489;28;20223;-60
2022/01/12 06:10:28;;;;;;;1.57;1.20;;;;;;;;;;5008468;28;21001;-60
2022/01/12 06:12:55;;;;;;;2.23;1.30;;;;;;;;;;4990261;28;20306;-60
2022/01/12 06:15:22;;;;;;;2.03;1.60;;;;;;;;;;5008338;28;20270;-60
2022/01/12 06:17:52;;;;;;;1.63;1.20;;;;;;;;;;5011348;28;20214;-61
2022/01/12 06:20:19;;;;;;;1.23;1.13;;;;;;;;;;5011751;28;20269;-59
2022/01/12 06:22:46;;;;;;;0.90;0.90;;;;;;;;;;5011213;28;20638;-60
2022/01/12 06:25:16;;;;;;;1.50;1.40;;;;;;;;;;5009827;28;20206;-59
2022/01/12 06:27:50;;;;;;;1.87;1.23;;;;;;;;;;5010980;28;20205;-59
2022/01/12 06:33:00;;;;;;;2.40;1.00;;;;;;;;;;5009528;28;20210;-59
2022/01/12 06:35:27;;;;;;;1.20;1.03;;;;;;;;;;5009420;28;20298;-58
2022/01/12 06:37:55;;;;;;;3.03;1.23;;;;;;;;;;5009595;28;20220;-59
2022/01/12 06:40:23;;;;;;;1.63;1.63;;;;;;;;;;5010316;28;20202;-59
2022/01/12 06:42:50;;;;;;;1.43;1.40;;;;;;;;;;5009235;28;20308;-59
2022/01/12 06:45:17;;;;;;;1.40;1.30;;;;;;;;;;5010751;28;20201;-60
2022/01/12 06:47:45;;;;;;;1.07;1.07;;;;;;;;;;5009684;28;20233;-59
2022/01/12 06:50:12;;;;;;;2.80;1.13;;;;;;;;;;5010113;23;20270;-61
2022/01/12 06:52:39;;;;;;;1.50;1.50;;;;;;;;;;4990741;28;20214;-62
2022/01/12 06:55:06;;;;;;;0.90;0.90;;;;;;;;;;4989352;28;20207;-60
2022/01/12 06:57:35;;;;;;;1.43;1.17;;;;;;;;;;4989000;28;20301;-59
2022/01/12 07:00:02;;;;;;;1.97;1.50;;;;;;;;;;4990341;28;20265;-60
2022/01/12 07:02:29;;;;;;;1.90;1.17;;;;;;;;;;4990451;28;20782;-60
2022/01/12 07:04:56;;;;;;;1.37;1.27;;;;;;;;;;4990547;28;20269;-60
2022/01/12 07:07:24;;;;;;;1.37;1.27;;;;;;;;;;4990175;28;20225;-60
2022/01/12 07:09:51;;;;;;;1.50;1.40;;;;;;;;;;4990376;28;20751;-60
2022/01/12 07:12:18;;;;;;;2.30;1.43;;;;;;;;;;4990205;28;20214;-60
2022/01/12 07:14:46;;;;;;;1.37;1.23;;;;;;;;;;4990198;28;20272;-60
2022/01/12 07:17:13;;;;;;;1.60;1.33;;;;;;;;;;4990073;28;20217;-60
2022/01/12 07:19:40;;;;;;;3.53;1.73;;;;;;;;;;4990192;28;20676;-60
2022/01/12 07:22:07;;;;;;;2.53;1.33;;;;;;;;;;4989962;28;20684;-60
2022/01/12 07:24:34;;;;;;;1.60;1.50;;;;;;;;;;4989983;28;20247;-60
2022/01/12 07:27:02;;;;;;;3.90;2.60;;;;;;;;;;4989868;28;20381;-60
2022/01/12 07:29:29;;;;;;;4.23;2.50;;;;;;;;;;4989836;28;20224;-60
2022/01/12 07:31:57;;;;;;;5.50;2.53;;;;;;;;;;4989915;28;20634;-60
2022/01/12 07:34:24;;;;;;;4.17;2.37;;;;;;;;;;4989902;28;20256;-60
2022/01/12 07:36:51;;;;;;;3.47;1.77;;;;;;;;;;4989740;28;20218;-60
2022/01/12 07:39:18;;;;;;;2.43;2.23;;;;;;;;;;4989679;28;20210;-60
2022/01/12 07:41:45;;;;;;;2.90;2.50;;;;;;;;;;4989690;28;20692;-60
2022/01/12 07:44:12;;;;;;;2.40;2.10;;;;;;;;;;4989700;28;20209;-60
2022/01/12 07:46:39;;;;;;;5.27;2.70;;;;;;;;;;4989638;28;20235;-60
2022/01/12 07:49:07;;;;;;;3.73;2.67;;;;;;;;;;4989510;28;20215;-60
2022/01/12 07:51:34;;;;;;;4.10;3.30;;;;;;;;;;4989284;28;20799;-61
2022/01/12 07:54:01;;;;;;;3.97;2.13;;;;;;;;;;4989485;28;20270;-61
2022/01/12 07:56:28;;;;;;;6.37;2.33;;;;;;;;;;4989130;28;20284;-60
2022/01/12 07:58:56;;;;;;;2.87;1.80;;;;;;;;;;5005534;28;20222;-61
2022/01/12 08:01:23;;;;;;;3.33;3.07;;;;;;;;;;4993992;28;20211;-62
2022/01/12 08:03:50;;;;;;;4.37;2.33;;;;;;;;;;5009375;28;20696;-60
2022/01/12 08:06:20;;;;;;;2.90;2.10;;;;;;;;;;4997422;28;20713;-62
2022/01/12 08:08:47;;;;;;;3.63;2.40;;;;;;;;;;4989695;28;20214;-60
2022/01/12 08:11:14;;;;;;;4.93;2.70;;;;;;;;;;4989750;28;20333;-61
2022/01/12 08:13:42;;;;;;;8.10;3.40;;;;;;;;;;4989741;28;20214;-62
2022/01/12 08:16:09;;;;;;;2.53;2.33;;;;;;;;;;4989267;28;20213;-61
2022/01/12 08:18:36;;;;;;;1.77;1.67;;;;;;;;;;5003260;28;20206;-62
2022/01/12 08:21:06;;;;;;;3.70;2.73;;;;;;;;;;5008276;28;20269;-62
2022/01/12 08:23:34;;;;;;;4.30;3.00;;;;;;;;;;4989547;28;20695;-62
2022/01/12 08:26:01;;;;;;;3.90;2.50;;;;;;;;;;4989022;28;20661;-61
2022/01/12 08:28:28;;;;;;;2.10;1.63;;;;;;;;;;4989040;28;20265;-62
2022/01/12 08:30:55;;;;;;;3.40;2.07;;;;;;;;;;4988948;28;20214;-61
2022/01/12 08:33:22;;;;;;;2.03;1.93;;;;;;;;;;4990861;28;20632;-63
2022/01/12 08:35:49;;;;;;;1.90;1.60;;;;;;;;;;5009067;28;20309;-62
2022/01/12 08:38:16;;;;;;;3.77;2.03;;;;;;;;;;5008891;28;20207;-62
2022/01/12 08:40:45;;;;;;;2.57;1.33;;;;;;;;;;5009180;28;20580;-61
2022/01/12 08:43:13;;;;;;;3.33;1.43;;;;;;;;;;5008829;28;20700;-62
2022/01/12 08:45:40;;;;;;;2.77;1.80;;;;;;;;;;5008803;28;20209;-61
2022/01/12 08:48:07;;;;;;;2.77;1.97;;;;;;;;;;5008302;28;20662;-64
2022/01/12 08:50:34;;;;;;;5.93;1.93;;;;;;;;;;5008186;28;20413;-65
2022/01/12 08:53:01;;;;;;;5.43;2.53;;;;;;;;;;5009087;28;20262;-68
2022/01/12 08:55:28;;;;;;;2.00;1.70;;;;;;;;;;5007313;28;20221;-63
2022/01/12 08:57:58;;;;;;;2.13;1.93;;;;;;;;;;5008705;28;20670;-63
2022/01/12 09:00:26;;;;;;;1.43;1.33;;;;;;;;;;5009184;28;20228;-62
2022/01/12 09:02:53;;;;;;;3.13;2.40;;;;;;;;;;4969638;28;20214;-62
2022/01/12 09:05:20;;;;;;;2.00;1.80;;;;;;;;;;4977941;28;20311;-59
2022/01/12 09:07:47;;;;;;;2.93;2.63;;;;;;;;;;4988996;28;20281;-62
2022/01/12 09:10:14;;;;;;;5.33;2.77;;;;;;;;;;4989236;28;20221;-62
2022/01/12 09:12:41;;;;;;;6.17;3.60;;;;;;;;;;4989246;28;20270;-61
2022/01/12 09:15:11;;;;;;;3.37;2.77;;;;;;;;;;4988847;28;20212;-61
2022/01/12 09:17:38;;;;;;;2.90;2.70;;;;;;;;;;4989095;28;20216;-62
2022/01/12 09:20:06;;;;;;;3.33;2.40;;;;;;;;;;4988285;28;20220;-62
2022/01/12 09:22:33;;;;;;;2.80;2.27;;;;;;;;;;4989139;28;20220;-61
2022/01/12 09:25:00;;;;;;;5.80;2.97;;;;;;;;;;4988966;28;20676;-61
2022/01/12 09:27:27;;;;;;;3.07;2.10;;;;;;;;;;4988793;28;20232;-61
2022/01/12 09:29:54;;;;;;;6.90;2.70;;;;;;;;;;4988950;28;20225;-60
2022/01/12 09:32:22;;;;;;;4.53;3.27;;;;;;;;;;4988632;28;20225;-61
2022/01/12 09:34:49;;;;;;;3.70;2.73;;;;;;;;;;4987975;28;20218;-61
2022/01/12 09:37:16;;;;;;;4.10;3.40;;;;;;;;;;4988475;28;20214;-61
2022/01/12 09:39:43;;;;;;;3.40;2.87;;;;;;;;;;4988806;28;20217;-60
2022/01/12 09:42:10;;;;;;;4.17;2.80;;;;;;;;;;4990974;28;20225;-60
2022/01/12 09:44:43;;;;;;;3.30;2.50;;;;;;;;;;4992198;28;20221;-61
2022/01/12 09:47:10;;;;;;;3.43;2.37;;;;;;;;;;4991996;28;20238;-61
2022/01/12 09:49:39;;;;;;;8.47;2.37;;;;;;;;;;4991850;28;20786;-61
2022/01/12 09:52:06;;;;;;;3.10;2.50;;;;;;;;;;4992269;28;20209;-61
2022/01/12 09:54:33;;;;;;;3.73;2.13;;;;;;;;;;4992087;28;20223;-60
2022/01/12 09:57:00;;;;;;;4.23;2.17;;;;;;;;;;4992362;28;20213;-61
2022/01/12 09:59:27;;;;;;;2.77;2.57;;;;;;;;;;4991955;28;20260;-60
2022/01/12 10:01:55;;;;;;;2.47;2.27;;;;;;;;;;4991857;28;20566;-61
2022/01/12 10:04:23;;;;;;;2.20;2.10;;;;;;;;;;4991894;28;20259;-61
2022/01/12 10:06:53;;;;;;;3.10;2.03;;;;;;;;;;4991675;28;20766;-67
2022/01/12 10:09:23;;;;;;;3.00;2.80;;;;;;;;;;4991822;28;20711;-63
2022/01/12 10:11:51;;;;;;;3.63;2.53;;;;;;;;;;4992053;28;20260;-62
2022/01/12 10:14:18;;;;;;;6.20;3.37;;;;;;;;;;4991881;28;20214;-62
2022/01/12 10:16:52;;;;;;;5.33;3.10;;;;;;;;;;4991915;28;20221;-61
2022/01/12 10:19:26;;;;;;;3.53;2.97;;;;;;;;;;4991840;28;20221;-62
2022/01/12 10:21:54;;;;;;;4.17;3.57;;;;;;;;;;4991737;28;20959;-68
2022/01/12 10:24:22;;;;;;;6.63;3.87;;;;;;;;;;4991650;28;20264;-66
2022/01/12 10:26:49;;;;;;;6.67;3.47;;;;;;;;;;4991537;28;20213;-62
2022/01/12 10:29:18;;;;;;;3.60;3.03;;;;;;;;;;4991379;28;20216;-62
2022/01/12 10:31:49;;;;;;;3.00;2.70;;;;;;;;;;4991525;28;20224;-64
2022/01/12 10:34:16;;;;;;;6.77;3.27;;;;;;;;;;4971970;28;20222;-62
2022/01/12 10:36:44;;;;;;;3.37;3.07;;;;;;;;;;4972296;28;20265;-62
2022/01/12 10:39:13;;;;;;;4.43;3.10;;;;;;;;;;4972163;28;20751;-64
2022/01/12 10:41:42;;;;;;;8.13;3.63;;;;;;;;;;4972102;28;20681;-80
2022/01/12 10:44:19;;;;;;;6.10;3.73;;;;;;;;;;4971895;28;20237;-64
2022/01/12 10:46:46;;;;;;;3.93;3.50;;;;;;;;;;4971726;28;20668;-65
2022/01/12 10:49:19;;;;;;;8.03;3.80;;;;;;;;;;4972019;28;20218;-80
2022/01/12 10:51:55;;;;;;;3.37;3.07;;;;;;;;;;4971301;28;20372;-68
2022/01/12 10:54:23;;;;;;;2.93;2.50;;;;;;;;;;4989334;28;20692;-70
2022/01/12 10:56:50;;;;;;;3.23;2.40;;;;;;;;;;4991130;28;20206;-64
2022/01/12 10:59:18;;;;;;;2.37;2.17;;;;;;;;;;4990847;28;20217;-62
2022/01/12 11:01:45;;;;;;;2.60;2.50;;;;;;;;;;4990918;28;20557;-63
2022/01/12 11:04:13;;;;;;;3.53;2.63;;;;;;;;;;4991098;28;20216;-65
2022/01/12 11:06:40;;;;;;;2.73;2.53;;;;;;;;;;4990959;28;20213;-62
2022/01/12 11:09:08;;;;;;;2.73;2.53;;;;;;;;;;4990821;28;20225;-63
2022/01/12 11:11:36;;;;;;;3.00;2.73;;;;;;;;;;5006255;28;20340;-63
2022/01/12 11:14:03;;;;;;;5.27;3.13;;;;;;;;;;5010092;28;20212;-63
2022/01/12 11:16:31;;;;;;;3.60;2.80;;;;;;;;;;5010190;28;20209;-63
2022/01/12 11:18:59;;;;;;;2.83;2.63;;;;;;;;;;4990844;28;20619;-63
2022/01/12 11:21:32;;;;;;;2.50;2.30;;;;;;;;;;4991342;28;20272;-63
2022/01/12 11:24:00;;;;;;;2.80;2.13;;;;;;;;;;4991452;28;20218;-63
2022/01/12 11:26:27;;;;;;;1.83;1.80;;;;;;;;;;4991154;28;20216;-63
2022/01/12 11:28:56;;;;;;;1.90;1.80;;;;;;;;;;4990853;28;20234;-62
2022/01/12 11:31:24;;;;;;;1.63;1.53;;;;;;;;;;4995459;28;20425;-64
2022/01/12 11:33:51;;;;;;;2.50;2.40;;;;;;;;;;4995934;28;20324;-63
2022/01/12 11:36:20;;;;;;;4.80;3.23;;;;;;;;;;4992329;28;20260;-63
2022/01/12 11:38:48;;;;;;;2.57;2.37;;;;;;;;;;5010311;28;20209;-64
2022/01/12 11:41:17;;;;;;;6.53;2.47;;;;;;;;;;5010546;28;20216;-62
2022/01/12 11:43:45;;;;;;;3.50;2.73;;;;;;;;;;5010535;28;20304;-63
2022/01/12 11:46:15;;;;;;;2.63;2.43;;;;;;;;;;4997466;28;20233;-61
2022/01/12 11:48:43;;;;;;;4.60;2.57;;;;;;;;;;4986664;28;20287;-62
2022/01/12 11:51:11;;;;;;;2.60;2.37;;;;;;;;;;4990622;28;20292;-62
2022/01/12 11:53:45;;;;;;;2.47;2.33;;;;;;;;;;4989203;28;20268;-62
2022/01/12 11:56:13;;;;;;;2.77;2.53;;;;;;;;;;4990592;28;20639;-62
2022/01/12 11:58:50;;;;;;;5.80;2.80;;;;;;;;;;4990404;28;20638;-63
2022/01/12 12:01:19;;;;;;;2.90;2.70;;;;;;;;;;4990192;28;20645;-65
2022/01/12 12:03:56;;;;;;;2.77;2.50;;;;;;;;;;4989077;28;20205;-65
2022/01/12 12:06:23;;;;;;;2.60;2.50;;;;;;;;;;4990033;28;20734;-65
2022/01/12 12:08:58;;;;;;;4.30;2.63;;;;;;;;;;4990024;28;20319;-65
2022/01/12 12:11:26;;;;;;;3.20;2.70;;;;;;;;;;4990262;28;20212;-65
2022/01/12 12:13:53;;;;;;;2.27;2.17;;;;;;;;;;4990177;28;20240;-65
2022/01/12 12:16:21;;;;;;;3.73;2.23;;;;;;;;;;4989794;28;20849;-65
2022/01/12 12:21:51;;;;;;;2.97;2.57;;;;;;;;;;4978803;28;20706;-67
2022/01/12 12:24:18;;;;;;;3.37;2.83;;;;;;;;;;4989428;28;20205;-64
2022/01/12 12:26:47;;;;;;;2.87;2.67;;;;;;;;;;4982213;28;20209;-64
2022/01/12 12:29:15;;;;;;;2.90;2.67;;;;;;;;;;4985630;28;20233;-62
2022/01/12 12:31:46;;;;;;;3.23;2.97;;;;;;;;;;4984436;28;20214;-62
2022/01/12 12:34:14;;;;;;;2.87;2.40;;;;;;;;;;4984017;28;20209;-62
2022/01/12 12:36:41;;;;;;;3.67;2.87;;;;;;;;;;4986060;28;20225;-62
2022/01/12 12:39:09;;;;;;;4.97;2.70;;;;;;;;;;4985829;28;20210;-63
2022/01/12 12:41:37;;;;;;;2.60;2.40;;;;;;;;;;4985238;28;20209;-62
2022/01/12 12:44:04;;;;;;;2.93;2.73;;;;;;;;;;4984124;28;20221;-63
2022/01/12 12:46:31;;;;;;;2.30;2.10;;;;;;;;;;4985314;28;20228;-64
2022/01/12 12:49:00;;;;;;;2.97;2.20;;;;;;;;;;4985413;28;20241;-64
2022/01/12 12:51:27;;;;;;;3.43;2.37;;;;;;;;;;4985690;28;20620;-65
2022/01/12 12:53:58;;;;;;;2.27;2.10;;;;;;;;;;4985166;28;20672;-64
2022/01/12 12:56:28;;;;;;;2.43;2.17;;;;;;;;;;4985798;28;20221;-64
2022/01/12 12:58:57;;;;;;;2.57;2.37;;;;;;;;;;4985430;28;20227;-65
2022/01/12 13:01:25;;;;;;;2.57;1.93;;;;;;;;;;4985041;28;20220;-65
2022/01/12 13:03:54;;;;;;;2.13;2.03;;;;;;;;;;4985350;28;20217;-65
2022/01/12 13:06:27;;;;;;;2.43;2.23;;;;;;;;;;4985307;28;20641;-65
2022/01/12 13:08:54;;;;;;;2.40;2.20;;;;;;;;;;4985535;28;20252;-65
2022/01/12 13:11:22;;;;;;;2.63;2.43;;;;;;;;;;4985089;28;20295;-64
2022/01/12 13:13:56;;;;;;;2.40;2.23;;;;;;;;;;4985269;28;20275;-65
2022/01/12 13:16:24;;;;;;;2.50;2.30;;;;;;;;;;4987341;28;20217;-65
2022/01/12 13:18:51;;;;;;;2.60;2.40;;;;;;;;;;5000838;28;20216;-64
2022/01/12 13:21:17;;;;;;;4.37;2.47;;;;;;;;;;4990255;28;20214;-64
2022/01/12 13:23:46;;;;;;;3.10;2.60;;;;;;;;;;4989250;28;20216;-64
2022/01/12 13:26:15;;;;;;;3.97;2.53;;;;;;;;;;4988957;28;20217;-68
2022/01/12 13:28:42;;;;;;;3.00;2.77;;;;;;;;;;4989258;28;20229;-63
2022/01/12 13:31:12;;;;;;;2.47;2.30;;;;;;;;;;4988733;28;20216;-63
2022/01/12 13:33:40;;;;;;;2.63;2.43;;;;;;;;;;4988455;28;20264;-63
2022/01/12 13:36:14;;;;;;;2.57;2.37;;;;;;;;;;4988416;28;20220;-64
2022/01/12 13:38:41;;;;;;;3.00;2.80;;;;;;;;;;4989221;28;20663;-63
2022/01/12 13:41:11;;;;;;;2.50;2.30;;;;;;;;;;4988525;28;20218;-63
2022/01/12 13:43:39;;;;;;;2.63;2.23;;;;;;;;;;4988197;28;20225;-63
2022/01/12 13:46:13;;;;;;;3.00;2.07;;;;;;;;;;4988308;28;20224;-63
2022/01/12 13:48:52;;;;;;;1.90;1.80;;;;;;;;;;4988786;28;20237;-63
2022/01/12 13:51:25;;;;;;;2.17;2.07;;;;;;;;;;4988029;28;20245;-63
2022/01/12 13:54:02;;;;;;;2.00;1.87;;;;;;;;;;4988640;28;20217;-63
2022/01/12 13:56:35;;;;;;;2.37;2.13;;;;;;;;;;4988696;28;20209;-64
2022/01/12 13:59:02;;;;;;;2.97;2.77;;;;;;;;;;4988553;28;20260;-62
2022/01/12 14:01:31;;;;;;;3.90;2.53;;;;;;;;;;4988670;28;20217;-63
2022/01/12 14:04:09;;;;;;;4.83;2.97;;;;;;;;;;4988429;28;20725;-63
2022/01/12 14:06:39;;;;;;;3.87;2.77;;;;;;;;;;4988094;28;20213;-62
2022/01/12 14:09:12;;;;;;;4.53;2.93;;;;;;;;;;4988066;28;20233;-66
2022/01/12 14:11:41;;;;;;;4.50;2.77;;;;;;;;;;4988541;28;20222;-63
2022/01/12 14:14:08;;;;;;;3.37;2.30;;;;;;;;;;4988063;28;20224;-62
2022/01/12 14:16:37;;;;;;;3.03;2.77;;;;;;;;;;4987730;28;20693;-61
2022/01/12 14:19:04;;;;;;;1172.27;490.97;;;;;;;;;;4985492;28;20292;-61
2022/01/12 14:21:32;;;;;;;143.87;45.00;;;;;;;;;;4987588;28;20214;-63
2022/01/12 14:23:59;;;;;;;9.50;4.87;;;;;;;;;;4987459;28;20624;-63
2022/01/12 14:26:27;;;;;;;5.73;2.80;;;;;;;;;;4987091;28;20217;-63
2022/01/12 14:28:56;;;;;;;4.30;3.30;;;;;;;;;;4987217;28;20252;-63
2022/01/12 14:31:24;;;;;;;2.73;2.50;;;;;;;;;;4985763;28;20640;-64
2022/01/12 14:33:51;;;;;;;3.03;2.73;;;;;;;;;;4984102;28;20209;-64
2022/01/12 14:36:18;;;;;;;3.50;2.80;;;;;;;;;;4986378;28;20213;-64
2022/01/12 14:38:46;;;;;;;2.97;2.63;;;;;;;;;;4999696;28;20217;-64
2022/01/12 14:41:13;;;;;;;4.03;2.57;;;;;;;;;;5002904;28;20216;-62
2022/01/12 14:43:40;;;;;;;4.70;2.47;;;;;;;;;;5006164;28;20213;-62
2022/01/12 14:46:09;;;;;;;2.83;2.53;;;;;;;;;;4984356;28;20209;-62
2022/01/12 14:48:36;;;;;;;3.87;2.90;;;;;;;;;;4976520;28;21158;-65
2022/01/12 14:51:03;;;;;;;3.83;3.13;;;;;;;;;;4975740;28;20246;-65
2022/01/12 14:53:30;;;;;;;3.40;2.83;;;;;;;;;;4977029;28;20969;-62
2022/01/12 14:55:58;;;;;;;2.87;2.60;;;;;;;;;;4985792;28;20675;-62
2022/01/12 14:58:26;;;;;;;2.97;2.07;;;;;;;;;;4985748;28;20214;-62
2022/01/12 15:00:54;;;;;;;2.83;2.40;;;;;;;;;;4986867;28;20590;-62
2022/01/12 15:03:22;;;;;;;2.73;2.53;;;;;;;;;;4987595;28;20221;-63
2022/01/12 15:05:50;;;;;;;2.93;2.33;;;;;;;;;;4986539;28;20791;-62
2022/01/12 15:08:18;;;;;;;3.30;2.43;;;;;;;;;;4987105;28;20221;-62
2022/01/12 15:10:45;;;;;;;2.20;2.07;;;;;;;;;;4986844;28;20213;-62
2022/01/12 15:13:19;;;;;;;2.13;2.03;;;;;;;;;;4981937;28;20228;-63
2022/01/12 15:15:47;;;;;;;3.37;2.13;;;;;;;;;;4985825;28;20208;-62
2022/01/12 15:18:14;;;;;;;2.23;1.70;;;;;;;;;;4984112;28;20240;-62
2022/01/12 15:20:43;;;;;;;2.17;1.93;;;;;;;;;;4980951;28;20209;-62
2022/01/12 15:23:10;;;;;;;3.67;2.37;;;;;;;;;;4986850;28;20228;-64
2022/01/12 15:25:37;;;;;;;2.20;1.97;;;;;;;;;;4986505;28;20671;-62
2022/01/12 15:28:06;;;;;;;1.83;1.73;;;;;;;;;;4985813;28;20637;-63
2022/01/12 15:30:34;;;;;;;2.33;2.13;;;;;;;;;;4984048;28;20202;-62
2022/01/12 15:33:01;;;;;;;4.50;2.60;;;;;;;;;;4980691;28;20753;-62
2022/01/12 15:35:28;;;;;;;2.83;2.33;;;;;;;;;;4980402;28;20268;-62
2022/01/12 15:37:57;;;;;;;2.00;1.87;;;;;;;;;;4986136;28;20202;-62
2022/01/12 15:40:24;;;;;;;1.77;1.77;;;;;;;;;;4986303;28;20210;-62
2022/01/12 15:42:51;;;;;;;2.27;1.97;;;;;;;;;;4984673;28;20268;-62
2022/01/12 15:45:18;;;;;;;2.53;2.10;;;;;;;;;;4982125;28;20272;-62
2022/01/12 15:47:45;;;;;;;2.77;2.63;;;;;;;;;;4981104;28;20205;-62
2022/01/12 15:50:13;;;;;;;2.07;1.83;;;;;;;;;;4984537;28;20245;-62
2022/01/12 15:52:40;;;;;;;2.47;2.10;;;;;;;;;;4983693;28;20902;-62
2022/01/12 15:55:09;;;;;;;2.00;1.80;;;;;;;;;;4986630;28;20209;-63
2022/01/12 15:57:36;;;;;;;4.33;2.20;;;;;;;;;;4983550;28;20213;-62
2022/01/12 16:00:04;;;;;;;2.43;2.23;;;;;;;;;;4984798;28;20201;-63
2022/01/12 16:02:31;;;;;;;4.33;2.60;;;;;;;;;;4983651;28;20216;-71
2022/01/12 16:04:58;;;;;;;3.93;2.63;;;;;;;;;;4985809;28;20213;-61